sensor_id;sensor_type;location;lat;lon;timestamp;pressure;altitude;pressure_sealevel;temperature;humidity
64610;BME280;51019;46.090;6.350;2023-05-19T00:00:04;96749.19;;;10.11;100.00
64610;BME280;51019;46.090;6.350;2023-05-19T00:02:36;96747.97;;;10.15;100.00
64610;BME280;51019;46.090;6.350;2023-05-19T00:05:04;96747.78;;;10.17;100.00
64610;BME280;51019;46.090;6.350;2023-05-19T00:07:32;96754.34;;;10.23;100.00
64610;BME280;51019;46.090;6.350;2023-05-19T00:10:03;96742.13;;;10.02;100.00
64610;BME280;51019;46.090;6.350;2023-05-19T00:12:30;96735.63;;;9.97;100.00
64610;BME280;51019;46.090;6.350;2023-05-19T00:15:00;96754.22;;;9.94;100.00
64610;BME280;51019;46.090;6.350;2023-05-19T00:17:29;96745.13;;;9.98;100.00
64610;BME280;51019;46.090;6.350;2023-05-19T00:19:58;96751.34;;;10.06;100.00
64610;BME280;51019;46.090;6.350;2023-05-19T00:22:31;96754.41;;;10.02;100.00
64610;BME280;51019;46.090;6.350;2023-05-19T00:24:58;96734.81;;;10.06;100.00
64610;BME280;51019;46.090;6.350;2023-05-19T00:27:26;96747.53;;;10.10;100.00
64610;BME280;51019;46.090;6.350;2023-05-19T00:29:54;96740.59;;;10.00;100.00
64610;BME280;51019;46.090;6.350;2023-05-19T00:32:23;96746.19;;;9.86;100.00
64610;BME280;51019;46.090;6.350;2023-05-19T00:34:50;96741.56;;;9.99;100.00
64610;BME280;51019;46.090;6.350;2023-05-19T00:37:17;96749.22;;;10.21;100.00
64610;BME280;51019;46.090;6.350;2023-05-19T00:39:45;96745.59;;;10.12;100.00
64610;BME280;51019;46.090;6.350;2023-05-19T00:42:12;96738.44;;;10.14;100.00
64610;BME280;51019;46.090;6.350;2023-05-19T00:44:40;96742.53;;;10.07;100.00
64610;BME280;51019;46.090;6.350;2023-05-19T00:47:08;96740.16;;;9.95;100.00
64610;BME280;51019;46.090;6.350;2023-05-19T00:49:37;96713.69;;;9.78;100.00
64610;BME280;51019;46.090;6.350;2023-05-19T00:52:05;96738.66;;;9.92;100.00
64610;BME280;51019;46.090;6.350;2023-05-19T00:54:33;96730.69;;;10.03;100.00
64610;BME280;51019;46.090;6.350;2023-05-19T00:57:02;96736.72;;;9.94;100.00
64610;BME280;51019;46.090;6.350;2023-05-19T00:59:30;96711.78;;;9.90;100.00
64610;BME280;51019;46.090;6.350;2023-05-19T01:01:57;96725.97;;;9.97;100.00
64610;BME280;51019;46.090;6.350;2023-05-19T01:04:27;96727.19;;;9.93;100.00
64610;BME280;51019;46.090;6.350;2023-05-19T01:07:01;96724.91;;;10.00;100.00
64610;BME280;51019;46.090;6.350;2023-05-19T01:09:29;96724.22;;;10.17;100.00
64610;BME280;51019;46.090;6.350;2023-05-19T01:11:57;96716.53;;;10.15;100.00
64610;BME280;51019;46.090;6.350;2023-05-19T01:14:25;96724.66;;;10.12;100.00
64610;BME280;51019;46.090;6.350;2023-05-19T01:16:57;96727.13;;;10.04;100.00
64610;BME280;51019;46.090;6.350;2023-05-19T01:19:55;96717.03;;;10.00;100.00
64610;BME280;51019;46.090;6.350;2023-05-19T01:29:02;96715.81;;;9.64;100.00
64610;BME280;51019;46.090;6.350;2023-05-19T01:31:35;96717.22;;;9.68;100.00
64610;BME280;51019;46.090;6.350;2023-05-19T01:34:05;96723.84;;;9.72;100.00
64610;BME280;51019;46.090;6.350;2023-05-19T01:36:34;96719.56;;;9.71;100.00
64610;BME280;51019;46.090;6.350;2023-05-19T01:39:03;96690.72;;;9.52;100.00
64610;BME280;51019;46.090;6.350;2023-05-19T01:41:31;96706.84;;;9.57;100.00
64610;BME280;51019;46.090;6.350;2023-05-19T01:44:00;96720.94;;;9.65;100.00
64610;BME280;51019;46.090;6.350;2023-05-19T01:46:27;96723.38;;;9.57;100.00
64610;BME280;51019;46.090;6.350;2023-05-19T01:48:56;96729.25;;;9.50;100.00
64610;BME280;51019;46.090;6.350;2023-05-19T01:51:25;96727.03;;;9.45;100.00
64610;BME280;51019;46.090;6.350;2023-05-19T01:53:52;96731.28;;;9.36;100.00
64610;BME280;51019;46.090;6.350;2023-05-19T01:56:29;96723.69;;;9.33;100.00
64610;BME280;51019;46.090;6.350;2023-05-19T01:59:04;96732.03;;;9.27;100.00
64610;BME280;51019;46.090;6.350;2023-05-19T02:01:41;96727.69;;;9.37;100.00
64610;BME280;51019;46.090;6.350;2023-05-19T02:04:18;96724.63;;;9.32;100.00
64610;BME280;51019;46.090;6.350;2023-05-19T02:06:52;96714.56;;;9.28;100.00
64610;BME280;51019;46.090;6.350;2023-05-19T02:09:24;96723.72;;;9.43;100.00
64610;BME280;51019;46.090;6.350;2023-05-19T02:11:54;96726.19;;;9.35;100.00
64610;BME280;51019;46.090;6.350;2023-05-19T02:14:32;96724.91;;;9.29;100.00
64610;BME280;51019;46.090;6.350;2023-05-19T02:17:02;96718.03;;;9.38;100.00
64610;BME280;51019;46.090;6.350;2023-05-19T02:19:37;96717.16;;;9.28;100.00
64610;BME280;51019;46.090;6.350;2023-05-19T02:22:05;96723.22;;;9.28;100.00
64610;BME280;51019;46.090;6.350;2023-05-19T02:24:33;96720.44;;;9.20;100.00
64610;BME280;51019;46.090;6.350;2023-05-19T02:27:02;96720.47;;;8.79;100.00
64610;BME280;51019;46.090;6.350;2023-05-19T02:29:29;96714.59;;;8.65;100.00
64610;BME280;51019;46.090;6.350;2023-05-19T02:31:57;96716.31;;;8.76;100.00
64610;BME280;51019;46.090;6.350;2023-05-19T02:34:24;96724.94;;;8.88;100.00
64610;BME280;51019;46.090;6.350;2023-05-19T02:36:53;96713.00;;;8.74;100.00
64610;BME280;51019;46.090;6.350;2023-05-19T02:39:21;96719.94;;;8.85;100.00
64610;BME280;51019;46.090;6.350;2023-05-19T02:41:47;96720.84;;;8.95;100.00
64610;BME280;51019;46.090;6.350;2023-05-19T02:44:15;96711.78;;;8.99;100.00
64610;BME280;51019;46.090;6.350;2023-05-19T02:46:42;96704.31;;;8.94;100.00
64610;BME280;51019;46.090;6.350;2023-05-19T02:49:09;96712.38;;;9.02;100.00
64610;BME280;51019;46.090;6.350;2023-05-19T02:51:37;96684.69;;;9.00;100.00
64610;BME280;51019;46.090;6.350;2023-05-19T02:54:06;96702.63;;;9.35;100.00
64610;BME280;51019;46.090;6.350;2023-05-19T02:56:33;96703.13;;;8.98;100.00
64610;BME280;51019;46.090;6.350;2023-05-19T02:59:01;96703.94;;;8.99;100.00
64610;BME280;51019;46.090;6.350;2023-05-19T03:01:28;96689.03;;;8.90;100.00
64610;BME280;51019;46.090;6.350;2023-05-19T03:03:57;96694.88;;;8.82;100.00
64610;BME280;51019;46.090;6.350;2023-05-19T03:06:24;96692.47;;;8.69;100.00
64610;BME280;51019;46.090;6.350;2023-05-19T03:08:53;96688.81;;;8.61;100.00
64610;BME280;51019;46.090;6.350;2023-05-19T03:11:25;96701.41;;;8.67;100.00
64610;BME280;51019;46.090;6.350;2023-05-19T03:13:52;96707.41;;;8.79;100.00
64610;BME280;51019;46.090;6.350;2023-05-19T03:16:21;96706.88;;;8.85;100.00
64610;BME280;51019;46.090;6.350;2023-05-19T03:18:50;96678.66;;;8.79;100.00
64610;BME280;51019;46.090;6.350;2023-05-19T03:21:17;96700.16;;;8.92;100.00
64610;BME280;51019;46.090;6.350;2023-05-19T03:23:45;96685.00;;;8.86;100.00
64610;BME280;51019;46.090;6.350;2023-05-19T03:26:12;96696.94;;;8.79;100.00
64610;BME280;51019;46.090;6.350;2023-05-19T03:28:41;96702.66;;;8.72;100.00
64610;BME280;51019;46.090;6.350;2023-05-19T03:31:09;96698.97;;;8.75;100.00
64610;BME280;51019;46.090;6.350;2023-05-19T03:33:37;96702.22;;;8.67;100.00
64610;BME280;51019;46.090;6.350;2023-05-19T03:36:05;96696.47;;;8.73;100.00
64610;BME280;51019;46.090;6.350;2023-05-19T03:38:32;96672.38;;;8.49;100.00
64610;BME280;51019;46.090;6.350;2023-05-19T03:41:00;96687.03;;;8.61;100.00
64610;BME280;51019;46.090;6.350;2023-05-19T03:43:27;96700.56;;;8.66;100.00
64610;BME280;51019;46.090;6.350;2023-05-19T03:45:57;96706.03;;;8.63;100.00
64610;BME280;51019;46.090;6.350;2023-05-19T03:48:24;96691.56;;;8.59;100.00
64610;BME280;51019;46.090;6.350;2023-05-19T03:50:51;96706.75;;;8.65;100.00
64610;BME280;51019;46.090;6.350;2023-05-19T03:53:19;96717.19;;;8.65;100.00
64610;BME280;51019;46.090;6.350;2023-05-19T03:55:46;96701.59;;;8.54;100.00
64610;BME280;51019;46.090;6.350;2023-05-19T03:58:15;96685.84;;;8.45;100.00
64610;BME280;51019;46.090;6.350;2023-05-19T04:00:42;96714.53;;;8.77;100.00
64610;BME280;51019;46.090;6.350;2023-05-19T04:03:11;96722.00;;;8.49;100.00
64610;BME280;51019;46.090;6.350;2023-05-19T04:05:40;96718.00;;;8.45;100.00
64610;BME280;51019;46.090;6.350;2023-05-19T04:08:07;96721.56;;;8.44;100.00
64610;BME280;51019;46.090;6.350;2023-05-19T04:10:34;96687.78;;;8.20;100.00
64610;BME280;51019;46.090;6.350;2023-05-19T04:13:02;96719.41;;;8.49;100.00
64610;BME280;51019;46.090;6.350;2023-05-19T04:15:31;96718.31;;;8.52;100.00
64610;BME280;51019;46.090;6.350;2023-05-19T04:17:58;96729.81;;;8.60;100.00
64610;BME280;51019;46.090;6.350;2023-05-19T04:20:27;96701.41;;;8.67;100.00
64610;BME280;51019;46.090;6.350;2023-05-19T04:22:55;96729.56;;;8.63;100.00
64610;BME280;51019;46.090;6.350;2023-05-19T04:25:25;96727.91;;;8.62;100.00
64610;BME280;51019;46.090;6.350;2023-05-19T04:27:52;96709.94;;;8.37;100.00
64610;BME280;51019;46.090;6.350;2023-05-19T04:30:22;96717.09;;;8.35;100.00
64610;BME280;51019;46.090;6.350;2023-05-19T04:32:49;96731.19;;;8.44;100.00
64610;BME280;51019;46.090;6.350;2023-05-19T04:35:16;96727.22;;;8.49;100.00
64610;BME280;51019;46.090;6.350;2023-05-19T04:37:46;96725.84;;;8.45;100.00
64610;BME280;51019;46.090;6.350;2023-05-19T04:40:14;96737.50;;;8.62;100.00
64610;BME280;51019;46.090;6.350;2023-05-19T04:42:42;96733.72;;;8.87;100.00
64610;BME280;51019;46.090;6.350;2023-05-19T04:45:10;96728.97;;;8.81;100.00
64610;BME280;51019;46.090;6.350;2023-05-19T04:47:38;96728.44;;;8.98;100.00
64610;BME280;51019;46.090;6.350;2023-05-19T04:50:06;96730.75;;;8.91;100.00
64610;BME280;51019;46.090;6.350;2023-05-19T04:52:36;96730.19;;;9.18;100.00
64610;BME280;51019;46.090;6.350;2023-05-19T04:55:08;96734.47;;;9.19;100.00
64610;BME280;51019;46.090;6.350;2023-05-19T04:57:36;96730.94;;;9.30;100.00
64610;BME280;51019;46.090;6.350;2023-05-19T05:00:04;96701.69;;;9.15;100.00
64610;BME280;51019;46.090;6.350;2023-05-19T05:02:33;96723.88;;;9.21;100.00
64610;BME280;51019;46.090;6.350;2023-05-19T05:05:01;96733.34;;;9.42;100.00
64610;BME280;51019;46.090;6.350;2023-05-19T05:07:29;96731.44;;;9.14;100.00
64610;BME280;51019;46.090;6.350;2023-05-19T05:09:56;96724.31;;;9.46;100.00
64610;BME280;51019;46.090;6.350;2023-05-19T05:12:26;96721.94;;;9.43;100.00
64610;BME280;51019;46.090;6.350;2023-05-19T05:14:54;96725.81;;;9.49;100.00
64610;BME280;51019;46.090;6.350;2023-05-19T05:17:22;96734.09;;;9.54;100.00
64610;BME280;51019;46.090;6.350;2023-05-19T05:19:50;96730.56;;;9.65;100.00
64610;BME280;51019;46.090;6.350;2023-05-19T05:22:18;96728.91;;;9.64;100.00
64610;BME280;51019;46.090;6.350;2023-05-19T05:24:46;96728.63;;;9.57;100.00
64610;BME280;51019;46.090;6.350;2023-05-19T05:27:14;96731.13;;;9.68;100.00
64610;BME280;51019;46.090;6.350;2023-05-19T05:29:43;96721.66;;;9.77;100.00
64610;BME280;51019;46.090;6.350;2023-05-19T05:32:10;96724.28;;;9.77;100.00
64610;BME280;51019;46.090;6.350;2023-05-19T05:34:37;96732.03;;;9.88;100.00
64610;BME280;51019;46.090;6.350;2023-05-19T05:37:06;96728.97;;;9.83;100.00
64610;BME280;51019;46.090;6.350;2023-05-19T05:39:33;96718.38;;;9.94;100.00
64610;BME280;51019;46.090;6.350;2023-05-19T05:42:00;96696.34;;;9.97;100.00
64610;BME280;51019;46.090;6.350;2023-05-19T05:44:28;96720.63;;;10.08;100.00
64610;BME280;51019;46.090;6.350;2023-05-19T05:46:57;96719.75;;;9.79;100.00
64610;BME280;51019;46.090;6.350;2023-05-19T05:49:25;96722.66;;;9.95;100.00
64610;BME280;51019;46.090;6.350;2023-05-19T05:51:54;96729.03;;;10.02;100.00
64610;BME280;51019;46.090;6.350;2023-05-19T05:54:21;96723.13;;;10.10;100.00
64610;BME280;51019;46.090;6.350;2023-05-19T05:56:49;96715.50;;;9.88;100.00
64610;BME280;51019;46.090;6.350;2023-05-19T05:59:17;96715.41;;;10.08;100.00
64610;BME280;51019;46.090;6.350;2023-05-19T06:01:44;96713.81;;;10.27;100.00
64610;BME280;51019;46.090;6.350;2023-05-19T06:04:14;96718.38;;;10.53;100.00
64610;BME280;51019;46.090;6.350;2023-05-19T06:06:41;96725.56;;;10.71;100.00
64610;BME280;51019;46.090;6.350;2023-05-19T06:09:10;96719.06;;;10.65;100.00
64610;BME280;51019;46.090;6.350;2023-05-19T06:11:37;96720.56;;;10.77;100.00
64610;BME280;51019;46.090;6.350;2023-05-19T06:14:04;96697.25;;;10.84;100.00
64610;BME280;51019;46.090;6.350;2023-05-19T06:16:33;96716.44;;;10.65;100.00
64610;BME280;51019;46.090;6.350;2023-05-19T06:19:00;96719.50;;;10.70;100.00
64610;BME280;51019;46.090;6.350;2023-05-19T06:21:30;96719.16;;;11.12;100.00
64610;BME280;51019;46.090;6.350;2023-05-19T06:23:57;96720.59;;;11.43;100.00
64610;BME280;51019;46.090;6.350;2023-05-19T06:26:24;96711.56;;;11.55;100.00
64610;BME280;51019;46.090;6.350;2023-05-19T06:28:53;96718.69;;;11.73;100.00
64610;BME280;51019;46.090;6.350;2023-05-19T06:31:20;96717.94;;;11.90;100.00
64610;BME280;51019;46.090;6.350;2023-05-19T06:33:48;96717.06;;;11.99;100.00
64610;BME280;51019;46.090;6.350;2023-05-19T06:36:15;96680.75;;;11.94;100.00
64610;BME280;51019;46.090;6.350;2023-05-19T06:38:45;96711.78;;;11.72;100.00
64610;BME280;51019;46.090;6.350;2023-05-19T06:41:12;96713.25;;;12.11;100.00
64610;BME280;51019;46.090;6.350;2023-05-19T06:43:39;96714.28;;;11.63;100.00
64610;BME280;51019;46.090;6.350;2023-05-19T06:46:07;96712.34;;;12.03;100.00
64610;BME280;51019;46.090;6.350;2023-05-19T06:48:35;96701.34;;;12.34;100.00
64610;BME280;51019;46.090;6.350;2023-05-19T06:51:02;96699.75;;;12.42;100.00
64610;BME280;51019;46.090;6.350;2023-05-19T06:53:30;96700.91;;;12.39;100.00
64610;BME280;51019;46.090;6.350;2023-05-19T06:55:59;96705.78;;;12.16;100.00
64610;BME280;51019;46.090;6.350;2023-05-19T06:58:26;96700.59;;;12.24;100.00
64610;BME280;51019;46.090;6.350;2023-05-19T07:00:54;96697.91;;;12.34;100.00
64610;BME280;51019;46.090;6.350;2023-05-19T07:03:21;96702.50;;;12.50;100.00
64610;BME280;51019;46.090;6.350;2023-05-19T07:05:50;96698.03;;;12.68;100.00
64610;BME280;51019;46.090;6.350;2023-05-19T07:08:18;96666.81;;;12.29;100.00
64610;BME280;51019;46.090;6.350;2023-05-19T07:10:45;96684.00;;;12.42;100.00
64610;BME280;51019;46.090;6.350;2023-05-19T07:13:14;96697.06;;;12.69;100.00
64610;BME280;51019;46.090;6.350;2023-05-19T07:15:41;96701.94;;;12.82;100.00
64610;BME280;51019;46.090;6.350;2023-05-19T07:18:08;96706.31;;;12.73;100.00
64610;BME280;51019;46.090;6.350;2023-05-19T07:20:37;96689.28;;;12.59;100.00
64610;BME280;51019;46.090;6.350;2023-05-19T07:23:04;96708.03;;;12.82;100.00
64610;BME280;51019;46.090;6.350;2023-05-19T07:25:31;96703.19;;;12.52;100.00
64610;BME280;51019;46.090;6.350;2023-05-19T07:27:59;96702.84;;;12.55;100.00
64610;BME280;51019;46.090;6.350;2023-05-19T07:30:28;96694.97;;;12.55;100.00
64610;BME280;51019;46.090;6.350;2023-05-19T07:32:55;96694.38;;;12.61;100.00
64610;BME280;51019;46.090;6.350;2023-05-19T07:35:23;96679.44;;;12.61;100.00
64610;BME280;51019;46.090;6.350;2023-05-19T07:37:51;96695.66;;;12.75;100.00
64610;BME280;51019;46.090;6.350;2023-05-19T07:40:19;96700.44;;;12.97;100.00
64610;BME280;51019;46.090;6.350;2023-05-19T07:42:48;96685.72;;;12.86;100.00
64610;BME280;51019;46.090;6.350;2023-05-19T07:45:15;96683.00;;;12.96;100.00
64610;BME280;51019;46.090;6.350;2023-05-19T07:47:44;96688.63;;;13.19;100.00
64610;BME280;51019;46.090;6.350;2023-05-19T07:50:12;96683.78;;;13.14;100.00
64610;BME280;51019;46.090;6.350;2023-05-19T07:52:39;96673.84;;;12.82;100.00
64610;BME280;51019;46.090;6.350;2023-05-19T07:55:07;96683.38;;;13.27;100.00
64610;BME280;51019;46.090;6.350;2023-05-19T07:57:34;96672.28;;;13.41;100.00
64610;BME280;51019;46.090;6.350;2023-05-19T08:00:01;96677.47;;;13.07;100.00
64610;BME280;51019;46.090;6.350;2023-05-19T08:02:32;96676.50;;;13.34;100.00
64610;BME280;51019;46.090;6.350;2023-05-19T08:05:01;96672.34;;;13.57;100.00
64610;BME280;51019;46.090;6.350;2023-05-19T08:07:28;96667.78;;;13.33;100.00
64610;BME280;51019;46.090;6.350;2023-05-19T08:09:56;96673.19;;;13.58;100.00
64610;BME280;51019;46.090;6.350;2023-05-19T08:12:24;96666.22;;;13.91;100.00
64610;BME280;51019;46.090;6.350;2023-05-19T08:14:51;96669.78;;;13.65;100.00
64610;BME280;51019;46.090;6.350;2023-05-19T08:17:18;96671.16;;;13.86;100.00
64610;BME280;51019;46.090;6.350;2023-05-19T08:19:46;96667.44;;;13.54;100.00
64610;BME280;51019;46.090;6.350;2023-05-19T08:22:16;96670.84;;;13.89;100.00
64610;BME280;51019;46.090;6.350;2023-05-19T08:24:43;96670.97;;;13.79;100.00
64610;BME280;51019;46.090;6.350;2023-05-19T08:27:11;96663.81;;;13.97;100.00
64610;BME280;51019;46.090;6.350;2023-05-19T08:29:39;96667.34;;;13.80;100.00
64610;BME280;51019;46.090;6.350;2023-05-19T08:32:07;96657.47;;;14.32;100.00
64610;BME280;51019;46.090;6.350;2023-05-19T08:34:35;96650.28;;;13.50;100.00
64610;BME280;51019;46.090;6.350;2023-05-19T08:37:04;96658.31;;;13.82;100.00
64610;BME280;51019;46.090;6.350;2023-05-19T08:39:33;96654.19;;;14.46;100.00
64610;BME280;51019;46.090;6.350;2023-05-19T08:42:02;96638.72;;;14.43;100.00
64610;BME280;51019;46.090;6.350;2023-05-19T08:44:32;96630.28;;;14.48;100.00
64610;BME280;51019;46.090;6.350;2023-05-19T08:47:02;96630.19;;;15.37;100.00
64610;BME280;51019;46.090;6.350;2023-05-19T08:49:32;96649.34;;;15.86;100.00
64610;BME280;51019;46.090;6.350;2023-05-19T08:52:08;96647.38;;;15.88;100.00
64610;BME280;51019;46.090;6.350;2023-05-19T08:54:44;96639.66;;;15.23;100.00
64610;BME280;51019;46.090;6.350;2023-05-19T08:57:13;96631.47;;;14.78;100.00
64610;BME280;51019;46.090;6.350;2023-05-19T08:59:42;96639.81;;;15.77;100.00
64610;BME280;51019;46.090;6.350;2023-05-19T09:02:10;96644.72;;;15.88;99.47
64610;BME280;51019;46.090;6.350;2023-05-19T09:04:39;96643.78;;;15.73;99.96
64610;BME280;51019;46.090;6.350;2023-05-19T09:07:11;96626.72;;;16.15;99.17
64610;BME280;51019;46.090;6.350;2023-05-19T09:09:42;96633.81;;;16.45;97.60
64610;BME280;51019;46.090;6.350;2023-05-19T09:12:10;96636.72;;;16.50;92.26
64610;BME280;51019;46.090;6.350;2023-05-19T09:14:39;96636.84;;;15.72;98.96
64610;BME280;51019;46.090;6.350;2023-05-19T09:17:06;96626.81;;;15.98;99.37
64610;BME280;51019;46.090;6.350;2023-05-19T09:19:33;96626.78;;;16.07;98.34
64610;BME280;51019;46.090;6.350;2023-05-19T09:22:02;96631.41;;;15.10;100.00
64610;BME280;51019;46.090;6.350;2023-05-19T09:24:29;96629.38;;;15.29;100.00
64610;BME280;51019;46.090;6.350;2023-05-19T09:26:59;96632.66;;;15.86;100.00
64610;BME280;51019;46.090;6.350;2023-05-19T09:29:27;96631.56;;;15.72;99.51
64610;BME280;51019;46.090;6.350;2023-05-19T09:31:55;96628.81;;;15.49;100.00
64610;BME280;51019;46.090;6.350;2023-05-19T09:34:25;96620.88;;;14.94;100.00
64610;BME280;51019;46.090;6.350;2023-05-19T09:36:52;96589.28;;;15.72;99.63
64610;BME280;51019;46.090;6.350;2023-05-19T09:39:22;96617.75;;;15.54;98.92
64610;BME280;51019;46.090;6.350;2023-05-19T09:41:50;96616.88;;;15.22;99.99
64610;BME280;51019;46.090;6.350;2023-05-19T09:44:24;96614.50;;;15.36;100.00
64610;BME280;51019;46.090;6.350;2023-05-19T09:46:54;96613.22;;;16.32;96.61
64610;BME280;51019;46.090;6.350;2023-05-19T09:49:24;96618.56;;;16.02;94.94
64610;BME280;51019;46.090;6.350;2023-05-19T09:51:53;96615.31;;;16.37;95.08
64610;BME280;51019;46.090;6.350;2023-05-19T09:54:22;96598.63;;;18.00;76.30
64610;BME280;51019;46.090;6.350;2023-05-19T09:56:57;96611.94;;;17.56;76.40
64610;BME280;51019;46.090;6.350;2023-05-19T09:59:30;96611.28;;;17.24;75.36
64610;BME280;51019;46.090;6.350;2023-05-19T10:01:58;96603.94;;;17.85;74.32
64610;BME280;51019;46.090;6.350;2023-05-19T10:04:27;96592.16;;;18.45;70.50
64610;BME280;51019;46.090;6.350;2023-05-19T10:06:56;96610.56;;;17.60;73.45
64610;BME280;51019;46.090;6.350;2023-05-19T10:09:24;96606.91;;;17.46;74.81
64610;BME280;51019;46.090;6.350;2023-05-19T10:11:55;96603.94;;;18.00;74.34
64610;BME280;51019;46.090;6.350;2023-05-19T10:14:24;96601.34;;;16.51;78.02
64610;BME280;51019;46.090;6.350;2023-05-19T10:16:55;96591.59;;;16.75;76.99
64610;BME280;51019;46.090;6.350;2023-05-19T10:19:27;96590.16;;;17.90;73.42
64610;BME280;51019;46.090;6.350;2023-05-19T10:21:57;96575.75;;;17.04;70.08
64610;BME280;51019;46.090;6.350;2023-05-19T10:24:26;96593.34;;;18.42;66.02
64610;BME280;51019;46.090;6.350;2023-05-19T10:27:00;96592.69;;;19.04;64.12
64610;BME280;51019;46.090;6.350;2023-05-19T10:29:33;96587.75;;;17.95;65.51
64610;BME280;51019;46.090;6.350;2023-05-19T10:32:10;96589.88;;;18.84;60.79
64610;BME280;51019;46.090;6.350;2023-05-19T10:34:58;96588.31;;;20.07;58.38
64610;BME280;51019;46.090;6.350;2023-05-19T10:37:38;96579.03;;;19.83;58.41
64610;BME280;51019;46.090;6.350;2023-05-19T10:40:11;96587.94;;;19.28;57.73
64610;BME280;51019;46.090;6.350;2023-05-19T10:42:52;96587.47;;;19.17;58.89
64610;BME280;51019;46.090;6.350;2023-05-19T10:45:27;96581.06;;;19.87;57.30
64610;BME280;51019;46.090;6.350;2023-05-19T10:47:58;96546.78;;;19.17;58.11
64610;BME280;51019;46.090;6.350;2023-05-19T10:50:25;96564.88;;;20.96;55.53
64610;BME280;51019;46.090;6.350;2023-05-19T10:52:55;96572.47;;;20.99;56.19
64610;BME280;51019;46.090;6.350;2023-05-19T10:55:46;96580.50;;;19.92;59.22
64610;BME280;51019;46.090;6.350;2023-05-19T10:58:37;96576.16;;;20.65;53.80
64610;BME280;51019;46.090;6.350;2023-05-19T11:01:09;96576.00;;;19.99;56.98
64610;BME280;51019;46.090;6.350;2023-05-19T11:03:46;96578.41;;;20.94;53.80
64610;BME280;51019;46.090;6.350;2023-05-19T11:06:18;96560.50;;;21.48;55.68
64610;BME280;51019;46.090;6.350;2023-05-19T11:08:48;96571.84;;;20.38;56.02
64610;BME280;51019;46.090;6.350;2023-05-19T11:11:18;96564.19;;;20.15;57.78
64610;BME280;51019;46.090;6.350;2023-05-19T11:13:46;96565.06;;;21.14;58.40
64610;BME280;51019;46.090;6.350;2023-05-19T11:16:17;96546.91;;;21.56;53.53
64610;BME280;51019;46.090;6.350;2023-05-19T11:18:52;96563.38;;;22.67;51.90
64610;BME280;51019;46.090;6.350;2023-05-19T11:21:19;96559.22;;;23.39;47.17
64610;BME280;51019;46.090;6.350;2023-05-19T11:23:47;96529.16;;;21.88;51.37
64610;BME280;51019;46.090;6.350;2023-05-19T11:26:14;96550.16;;;22.22;50.55
64610;BME280;51019;46.090;6.350;2023-05-19T11:28:41;96530.50;;;21.59;53.23
64610;BME280;51019;46.090;6.350;2023-05-19T11:31:10;96551.94;;;21.32;53.85
64610;BME280;51019;46.090;6.350;2023-05-19T11:33:38;96545.06;;;19.44;57.65
64610;BME280;51019;46.090;6.350;2023-05-19T11:36:08;96550.72;;;21.09;56.43
64610;BME280;51019;46.090;6.350;2023-05-19T11:38:37;96548.47;;;21.83;52.55
64610;BME280;51019;46.090;6.350;2023-05-19T11:41:06;96539.06;;;20.57;55.50
64610;BME280;51019;46.090;6.350;2023-05-19T11:43:33;96524.25;;;21.85;52.17
64610;BME280;51019;46.090;6.350;2023-05-19T11:46:01;96523.91;;;20.77;55.03
64610;BME280;51019;46.090;6.350;2023-05-19T11:48:29;96531.59;;;21.38;55.66
64610;BME280;51019;46.090;6.350;2023-05-19T11:50:59;96527.38;;;22.20;50.36
64610;BME280;51019;46.090;6.350;2023-05-19T11:53:28;96526.25;;;22.34;49.48
64610;BME280;51019;46.090;6.350;2023-05-19T11:56:02;96529.09;;;23.13;48.29
64610;BME280;51019;46.090;6.350;2023-05-19T11:58:29;96519.44;;;21.62;51.01
64610;BME280;51019;46.090;6.350;2023-05-19T12:00:56;96526.09;;;21.33;52.95
64610;BME280;51019;46.090;6.350;2023-05-19T12:03:31;96509.13;;;20.22;53.98
64610;BME280;51019;46.090;6.350;2023-05-19T12:05:58;96516.34;;;22.66;50.31
64610;BME280;51019;46.090;6.350;2023-05-19T12:08:26;96504.19;;;21.76;53.20
64610;BME280;51019;46.090;6.350;2023-05-19T12:10:55;96509.38;;;21.57;55.51
64610;BME280;51019;46.090;6.350;2023-05-19T12:13:22;96477.44;;;21.89;53.78
64610;BME280;51019;46.090;6.350;2023-05-19T12:15:52;96504.53;;;22.24;51.25
64610;BME280;51019;46.090;6.350;2023-05-19T12:18:21;96512.44;;;20.96;51.41
64610;BME280;51019;46.090;6.350;2023-05-19T12:20:48;96498.19;;;21.35;51.33
64610;BME280;51019;46.090;6.350;2023-05-19T12:23:17;96500.88;;;22.18;52.17
64610;BME280;51019;46.090;6.350;2023-05-19T12:25:46;96494.53;;;21.23;52.65
64610;BME280;51019;46.090;6.350;2023-05-19T12:28:16;96495.00;;;22.03;49.28
64610;BME280;51019;46.090;6.350;2023-05-19T12:30:47;96493.38;;;22.02;49.72
64610;BME280;51019;46.090;6.350;2023-05-19T12:33:16;96495.22;;;22.58;51.61
64610;BME280;51019;46.090;6.350;2023-05-19T12:35:45;96489.78;;;22.71;47.72
64610;BME280;51019;46.090;6.350;2023-05-19T12:38:14;96484.84;;;21.42;48.80
64610;BME280;51019;46.090;6.350;2023-05-19T12:40:42;96487.72;;;21.34;51.92
64610;BME280;51019;46.090;6.350;2023-05-19T12:43:19;96480.25;;;20.06;54.14
64610;BME280;51019;46.090;6.350;2023-05-19T12:45:47;96482.50;;;19.41;55.73
64610;BME280;51019;46.090;6.350;2023-05-19T12:48:20;96482.75;;;20.60;52.70
64610;BME280;51019;46.090;6.350;2023-05-19T12:50:51;96475.94;;;20.90;53.34
64610;BME280;51019;46.090;6.350;2023-05-19T12:53:20;96478.50;;;22.19;51.56
64610;BME280;51019;46.090;6.350;2023-05-19T12:55:50;96473.00;;;23.25;49.04
64610;BME280;51019;46.090;6.350;2023-05-19T12:58:21;96477.78;;;22.80;49.99
64610;BME280;51019;46.090;6.350;2023-05-19T13:00:49;96477.16;;;23.39;48.78
64610;BME280;51019;46.090;6.350;2023-05-19T13:03:18;96476.66;;;22.44;48.51
64610;BME280;51019;46.090;6.350;2023-05-19T13:05:47;96461.03;;;22.91;49.54
64610;BME280;51019;46.090;6.350;2023-05-19T13:08:15;96481.97;;;22.76;49.00
64610;BME280;51019;46.090;6.350;2023-05-19T13:10:44;96467.06;;;22.12;48.89
64610;BME280;51019;46.090;6.350;2023-05-19T13:13:14;96473.50;;;21.91;51.32